createdAt,value
2024-05-09T00:01:07.905Z,6.20
2024-05-09T00:06:08.038Z,7.70
2024-05-09T00:11:07.834Z,7.10
2024-05-09T00:16:07.755Z,7.20
2024-05-09T00:21:07.800Z,7.10
2024-05-09T00:26:07.617Z,7.10
2024-05-09T00:31:07.551Z,7.70
2024-05-09T00:36:07.476Z,7.40
2024-05-09T00:41:07.542Z,5.70
2024-05-09T00:46:07.372Z,6.40
2024-05-09T00:51:07.405Z,6.90
2024-05-09T00:56:07.264Z,7.00
2024-05-09T01:01:07.296Z,6.80
2024-05-09T01:06:07.194Z,6.90
2024-05-09T01:11:07.180Z,6.30
2024-05-09T01:16:07.125Z,7.50
2024-05-09T01:21:07.045Z,6.70
2024-05-09T01:26:06.972Z,6.30
2024-05-09T01:31:06.912Z,6.40
2024-05-09T01:36:06.822Z,6.70
2024-05-09T01:41:06.876Z,7.10
2024-05-09T01:46:06.726Z,7.80
2024-05-09T01:51:06.826Z,7.30
2024-05-09T01:56:06.675Z,7.00
2024-05-09T02:01:06.711Z,7.50
2024-05-09T02:06:06.797Z,8.00
2024-05-09T02:11:06.532Z,6.70
2024-05-09T02:16:06.404Z,7.10
2024-05-09T02:21:06.476Z,8.80
2024-05-09T02:26:06.320Z,8.40
2024-05-09T02:31:06.255Z,8.10
2024-05-09T02:36:06.168Z,7.10
2024-05-09T02:41:06.205Z,7.20
2024-05-09T02:46:06.080Z,8.10
2024-05-09T02:51:06.217Z,6.60
2024-05-09T02:56:06.024Z,9.00
2024-05-09T03:01:05.996Z,8.40
2024-05-09T03:06:05.870Z,7.30
2024-05-09T03:11:05.851Z,8.90
2024-05-09T03:16:05.705Z,8.30
2024-05-09T03:21:05.798Z,9.60
2024-05-09T03:26:05.612Z,8.60
2024-05-09T03:31:05.547Z,7.70
2024-05-09T03:36:08.235Z,7.10
2024-05-09T03:41:05.506Z,8.10
2024-05-09T03:46:05.398Z,8.00
2024-05-09T03:51:05.501Z,8.90
2024-05-09T03:56:05.312Z,9.60
2024-05-09T04:01:05.305Z,8.20
2024-05-09T04:06:05.216Z,9.70
2024-05-09T04:11:05.269Z,10.40
2024-05-09T04:16:05.057Z,7.80
2024-05-09T04:21:05.217Z,7.30
2024-05-09T04:26:05.069Z,7.60
2024-05-09T04:31:04.905Z,7.20
2024-05-09T04:36:04.826Z,8.20
2024-05-09T04:41:04.836Z,8.50
2024-05-09T04:46:04.699Z,7.90
2024-05-09T04:51:04.739Z,7.40
2024-05-09T04:56:04.653Z,8.00
2024-05-09T05:01:04.611Z,7.20
2024-05-09T05:06:04.592Z,6.60
2024-05-09T05:11:04.625Z,7.40
2024-05-09T05:16:04.375Z,8.20
2024-05-09T05:21:04.398Z,6.90
2024-05-09T05:26:04.341Z,7.30
2024-05-09T05:31:06.263Z,7.60
2024-05-09T05:36:04.189Z,7.80
2024-05-09T05:41:05.207Z,7.60
2024-05-09T05:46:04.074Z,7.40
2024-05-09T05:51:04.800Z,8.10
2024-05-09T05:56:04.021Z,7.90
2024-05-09T06:01:04.074Z,8.70
2024-05-09T06:06:04.243Z,8.60
2024-05-09T06:11:04.091Z,8.90
2024-05-09T06:16:04.798Z,8.60
2024-05-09T06:21:03.803Z,8.30
2024-05-09T06:26:03.677Z,9.60
2024-05-09T06:31:03.624Z,10.80
2024-05-09T06:36:04.274Z,11.20
2024-05-09T06:41:03.617Z,11.00
2024-05-09T06:46:03.432Z,11.70
2024-05-09T06:51:03.398Z,12.70
2024-05-09T06:56:03.355Z,11.50
2024-05-09T07:01:03.430Z,14.50
2024-05-09T07:06:03.403Z,13.50
2024-05-09T07:11:03.330Z,11.40
2024-05-09T07:16:03.122Z,12.20
2024-05-09T07:21:03.124Z,10.60
2024-05-09T07:26:03.032Z,12.80
2024-05-09T07:31:03.038Z,10.00
2024-05-09T07:36:02.882Z,11.90
2024-05-09T07:41:02.910Z,11.40
2024-05-09T07:47:14.322Z,9.70
2024-05-09T07:56:02.890Z,8.70
2024-05-09T08:01:02.819Z,9.90
2024-05-09T08:06:02.563Z,8.00
2024-05-09T08:11:02.679Z,9.50
2024-05-09T08:16:02.571Z,7.30
2024-05-09T08:21:02.423Z,7.00
2024-05-09T08:26:02.341Z,7.50
2024-05-09T08:31:05.164Z,6.40
2024-05-09T08:36:02.242Z,5.90
2024-05-09T08:41:02.230Z,5.90
2024-05-09T08:46:02.208Z,5.70
2024-05-09T08:51:02.204Z,5.30
2024-05-09T08:56:02.043Z,4.40
2024-05-09T09:01:02.105Z,6.10
2024-05-09T09:06:01.942Z,7.20
2024-05-09T09:11:01.914Z,4.70
2024-05-09T09:16:01.873Z,6.30
2024-05-09T09:21:01.832Z,6.10
2024-05-09T09:26:01.850Z,5.10
2024-05-09T09:31:01.873Z,5.00
2024-05-09T09:36:01.649Z,5.00
2024-05-09T09:41:01.896Z,4.00
2024-05-09T09:46:01.611Z,3.60
2024-05-09T09:51:01.608Z,3.80
2024-05-09T09:56:01.465Z,4.10
2024-05-09T10:01:01.559Z,3.10
2024-05-09T10:06:01.426Z,4.00
2024-05-09T10:11:01.448Z,3.70
2024-05-09T10:16:01.295Z,2.90
2024-05-09T10:21:01.280Z,2.80
2024-05-09T10:26:01.229Z,3.00
2024-05-09T10:31:01.204Z,2.80
2024-05-09T10:36:01.099Z,3.40
2024-05-09T10:41:01.097Z,3.60
2024-05-09T10:46:01.150Z,2.60
2024-05-09T10:51:01.101Z,3.80
2024-05-09T10:56:00.899Z,3.50
2024-05-09T11:01:03.399Z,3.40
2024-05-09T11:06:00.893Z,3.20
2024-05-09T11:11:00.784Z,3.90
2024-05-09T11:16:00.825Z,3.30
2024-05-09T11:21:00.821Z,4.10
2024-05-09T11:26:00.694Z,4.90
2024-05-09T11:31:00.787Z,4.00
2024-05-09T11:36:00.513Z,3.00
2024-05-09T11:41:00.462Z,3.70
2024-05-09T11:46:00.491Z,3.70
2024-05-09T11:51:00.391Z,3.20
2024-05-09T11:56:00.430Z,4.10
2024-05-09T12:01:00.336Z,3.20
2024-05-09T12:06:00.570Z,3.40
2024-05-09T12:11:00.480Z,3.10
2024-05-09T12:16:00.182Z,3.30
2024-05-09T12:21:00.099Z,2.90
2024-05-09T12:26:00.047Z,4.30
2024-05-09T12:31:00.082Z,3.00
2024-05-09T12:35:59.985Z,2.50
2024-05-09T12:41:00.007Z,2.50
2024-05-09T12:45:59.938Z,4.10
2024-05-09T12:50:59.809Z,3.10
2024-05-09T12:56:02.330Z,3.40
2024-05-09T13:00:59.815Z,2.00
2024-05-09T13:05:59.769Z,2.80
2024-05-09T13:10:59.645Z,2.90
2024-05-09T13:15:59.683Z,2.80
2024-05-09T13:20:59.479Z,2.00
2024-05-09T13:25:59.472Z,3.10
2024-05-09T13:30:59.457Z,2.30
2024-05-09T13:35:59.342Z,3.00
2024-05-09T13:40:59.439Z,2.40
2024-05-09T13:45:59.425Z,2.90
2024-05-09T13:50:59.404Z,3.30
2024-05-09T13:55:59.143Z,2.50
2024-05-09T14:00:59.225Z,2.20
2024-05-09T14:05:59.226Z,2.20
2024-05-09T14:10:59.154Z,2.00
2024-05-09T14:15:59.057Z,1.80
2024-05-09T14:20:58.924Z,1.60
2024-05-09T14:25:58.842Z,2.00
2024-05-09T14:31:01.817Z,2.00
2024-05-09T14:36:00.340Z,2.70
2024-05-09T14:40:59.022Z,2.50
2024-05-09T14:45:58.718Z,2.50
2024-05-09T14:50:58.649Z,2.50
2024-05-09T14:55:58.628Z,3.10
2024-05-09T15:00:58.765Z,2.00
2024-05-09T15:05:58.495Z,2.50
2024-05-09T15:10:58.648Z,2.20
2024-05-09T15:15:58.391Z,2.40
2024-05-09T15:20:58.540Z,2.40
2024-05-09T15:25:58.333Z,2.80
2024-05-09T15:30:58.311Z,2.00
2024-05-09T15:35:58.182Z,3.50
2024-05-09T15:40:58.155Z,2.30
2024-05-09T15:45:58.093Z,3.40
2024-05-09T15:50:58.178Z,8.40
2024-05-09T15:55:57.982Z,20.70
2024-05-09T16:00:58.065Z,5.30
2024-05-09T16:05:57.903Z,4.40
2024-05-09T16:10:58.121Z,3.10
2024-05-09T16:15:57.811Z,3.50
2024-05-09T16:20:57.821Z,11.80
2024-05-09T16:25:57.713Z,4.10
2024-05-09T16:30:57.662Z,3.10
2024-05-09T16:35:57.558Z,3.20
2024-05-09T16:40:57.660Z,3.00
2024-05-09T16:45:58.418Z,2.20
2024-05-09T16:50:57.393Z,2.40
2024-05-09T16:55:57.369Z,2.90
2024-05-09T17:00:57.524Z,3.20
2024-05-09T17:05:57.295Z,3.80
2024-05-09T17:10:57.284Z,2.30
2024-05-09T17:15:57.526Z,3.20
2024-05-09T17:20:57.073Z,2.30
2024-05-09T17:25:57.343Z,2.30
2024-05-09T17:30:57.111Z,3.40
2024-05-09T17:35:56.892Z,3.10
2024-05-09T17:40:56.913Z,3.10
2024-05-09T17:45:56.846Z,2.30
2024-05-09T17:50:56.772Z,3.00
2024-05-09T17:55:56.709Z,2.80
2024-05-09T18:00:56.689Z,2.70
2024-05-09T18:05:56.734Z,3.00
2024-05-09T18:10:56.637Z,3.20
2024-05-09T18:15:56.815Z,3.30
2024-05-09T18:20:56.439Z,3.10
2024-05-09T18:25:56.373Z,3.00
2024-05-09T18:30:56.357Z,3.40
2024-05-09T18:35:56.296Z,3.80
2024-05-09T18:40:56.356Z,3.60
2024-05-09T18:45:56.166Z,3.30
2024-05-09T18:50:56.293Z,3.40
2024-05-09T18:55:56.153Z,3.30
2024-05-09T19:00:58.395Z,3.50
2024-05-09T19:05:56.183Z,3.50
2024-05-09T19:10:56.160Z,3.10
2024-05-09T19:15:55.987Z,3.60
2024-05-09T19:20:55.859Z,3.30
2024-05-09T19:25:55.692Z,3.80
2024-05-09T19:30:55.692Z,3.00
2024-05-09T19:35:55.608Z,3.10
2024-05-09T19:40:55.749Z,3.60
2024-05-09T19:45:55.553Z,4.00
2024-05-09T19:50:55.536Z,3.90
2024-05-09T19:55:56.561Z,3.80
2024-05-09T20:00:55.540Z,3.60
2024-05-09T20:05:55.359Z,3.30
2024-05-09T20:10:55.387Z,3.50
2024-05-09T20:15:55.247Z,3.90
2024-05-09T20:20:55.299Z,4.20
2024-05-09T20:25:55.105Z,4.50
2024-05-09T20:30:55.126Z,3.40
2024-05-09T20:35:55.010Z,3.70
2024-05-09T20:40:54.978Z,3.70
2024-05-09T20:45:55.022Z,3.80
2024-05-09T20:50:54.938Z,4.40
2024-05-09T20:55:54.798Z,4.80
2024-05-09T21:00:54.842Z,4.50
2024-05-09T21:05:54.701Z,4.10
2024-05-09T21:10:54.811Z,4.60
2024-05-09T21:15:54.722Z,4.80
2024-05-09T21:20:54.530Z,4.80
2024-05-09T21:25:54.466Z,4.80
2024-05-09T21:30:54.500Z,4.10
2024-05-09T21:35:54.358Z,4.40
2024-05-09T21:40:54.410Z,4.50
2024-05-09T21:45:54.363Z,4.80
2024-05-09T21:50:54.267Z,5.30
2024-05-09T21:55:54.142Z,4.40
2024-05-09T22:00:54.183Z,4.30
2024-05-09T22:05:54.963Z,4.30
2024-05-09T22:10:54.143Z,4.60
2024-05-09T22:15:55.077Z,6.00
2024-05-09T22:20:54.010Z,6.20
2024-05-09T22:25:53.839Z,4.30
2024-05-09T22:30:53.845Z,5.20
2024-05-09T22:35:53.769Z,4.50
2024-05-09T22:40:53.738Z,4.60
2024-05-09T22:45:53.865Z,5.00
2024-05-09T22:50:53.870Z,5.50
2024-05-09T22:55:53.520Z,4.60
2024-05-09T23:00:53.732Z,4.60
2024-05-09T23:05:53.510Z,5.20
2024-05-09T23:10:53.702Z,5.50
2024-05-09T23:15:53.317Z,4.40
2024-05-09T23:20:53.253Z,5.00
2024-05-09T23:25:53.227Z,4.30
2024-05-09T23:30:53.294Z,4.40
2024-05-09T23:35:53.063Z,5.40
2024-05-09T23:40:53.129Z,5.20
2024-05-09T23:45:53.058Z,4.80
2024-05-09T23:50:52.939Z,4.80
2024-05-09T23:55:52.877Z,4.90
